createdAt,value
2022-08-29T00:01:05.521Z,15.80
2022-08-29T00:03:32.716Z,15.80
2022-08-29T00:06:00.219Z,15.80
2022-08-29T00:08:27.138Z,15.90
2022-08-29T00:10:54.356Z,15.90
2022-08-29T00:13:21.724Z,15.80
2022-08-29T00:15:48.815Z,15.70
2022-08-29T00:18:17.637Z,15.70
2022-08-29T00:20:45.199Z,15.60
2022-08-29T00:23:12.159Z,15.70
2022-08-29T00:25:39.141Z,15.60
2022-08-29T00:28:05.909Z,15.50
2022-08-29T00:30:33.829Z,15.50
2022-08-29T00:33:00.877Z,15.50
2022-08-29T00:35:34.347Z,15.40
2022-08-29T00:38:03.341Z,15.40
2022-08-29T00:40:36.956Z,15.40
2022-08-29T00:43:05.251Z,15.30
2022-08-29T00:45:32.794Z,15.30
2022-08-29T00:48:05.101Z,15.20
2022-08-29T00:50:42.219Z,15.20
2022-08-29T00:53:13.441Z,15.20
2022-08-29T00:55:41.100Z,15.20
2022-08-29T00:58:21.285Z,15.20
2022-08-29T01:00:49.221Z,15.20
2022-08-29T01:03:16.015Z,15.20
2022-08-29T01:05:43.565Z,15.20
2022-08-29T01:08:10.470Z,15.10
2022-08-29T01:10:56.118Z,15.10
2022-08-29T01:13:31.705Z,14.90
2022-08-29T01:15:59.153Z,15.00
2022-08-29T01:18:29.033Z,14.90
2022-08-29T01:21:03.884Z,14.90
2022-08-29T01:23:55.037Z,14.80
2022-08-29T01:26:23.023Z,14.80
2022-08-29T01:28:52.390Z,14.80
2022-08-29T01:31:37.675Z,14.80
2022-08-29T01:34:15.607Z,14.80
2022-08-29T01:36:50.437Z,14.80
2022-08-29T01:39:24.600Z,14.70
2022-08-29T01:41:51.773Z,14.70
2022-08-29T01:44:20.689Z,14.70
2022-08-29T01:46:50.371Z,14.70
2022-08-29T01:49:18.858Z,14.70
2022-08-29T01:51:45.875Z,14.60
2022-08-29T01:54:14.021Z,14.50
2022-08-29T01:56:47.192Z,14.50
2022-08-29T01:59:18.874Z,14.40
2022-08-29T02:02:04.643Z,14.40
2022-08-29T02:04:32.037Z,14.40
2022-08-29T02:06:59.289Z,14.40
2022-08-29T02:09:27.119Z,14.30
2022-08-29T02:11:54.685Z,14.40
2022-08-29T02:14:23.527Z,14.40
2022-08-29T02:16:50.510Z,14.40
2022-08-29T02:19:17.910Z,14.30
2022-08-29T02:21:45.214Z,14.30
2022-08-29T02:24:24.908Z,14.20
2022-08-29T02:26:55.358Z,14.20
2022-08-29T02:29:22.880Z,14.10
2022-08-29T02:31:49.669Z,14.10
2022-08-29T02:34:17.193Z,14.10
2022-08-29T02:36:44.798Z,14.10
2022-08-29T02:39:14.862Z,14.00
2022-08-29T02:41:44.501Z,14.00
2022-08-29T02:44:11.969Z,13.90
2022-08-29T02:46:39.026Z,13.90
2022-08-29T02:49:05.876Z,13.90
2022-08-29T02:51:33.753Z,13.80
2022-08-29T02:54:01.287Z,13.90
2022-08-29T02:56:28.573Z,13.80
2022-08-29T02:58:55.739Z,13.80
2022-08-29T03:01:24.305Z,13.80
2022-08-29T03:03:51.539Z,13.70
2022-08-29T03:06:19.740Z,13.70
2022-08-29T03:08:46.704Z,13.70
2022-08-29T03:11:14.183Z,13.70
2022-08-29T03:13:44.061Z,13.80
2022-08-29T03:16:11.802Z,13.70
2022-08-29T03:18:38.913Z,13.70
2022-08-29T03:21:05.781Z,13.60
2022-08-29T03:23:32.540Z,13.60
2022-08-29T03:25:59.492Z,13.60
2022-08-29T03:28:26.195Z,13.60
2022-08-29T03:30:53.069Z,13.60
2022-08-29T03:33:19.855Z,13.50
2022-08-29T03:35:46.586Z,13.50
2022-08-29T03:38:13.476Z,13.40
2022-08-29T03:40:42.219Z,13.40
2022-08-29T03:43:10.261Z,13.40
2022-08-29T03:45:37.139Z,13.40
2022-08-29T03:48:04.161Z,13.40
2022-08-29T03:50:30.915Z,13.40
2022-08-29T03:52:58.109Z,13.40
2022-08-29T03:55:25.124Z,13.30
2022-08-29T03:57:54.323Z,13.30
2022-08-29T04:00:21.540Z,13.20
2022-08-29T04:02:50.568Z,13.30
2022-08-29T04:05:18.627Z,13.20
2022-08-29T04:07:46.933Z,13.20
2022-08-29T04:10:18.781Z,13.10
2022-08-29T04:12:45.603Z,13.00
2022-08-29T04:15:12.951Z,13.10
2022-08-29T04:17:53.216Z,13.00
2022-08-29T04:20:24.733Z,12.90
2022-08-29T04:22:53.107Z,12.90
2022-08-29T04:25:20.034Z,13.00
2022-08-29T04:27:46.856Z,13.00
2022-08-29T04:30:17.680Z,13.00
2022-08-29T04:32:44.758Z,12.90
2022-08-29T04:35:12.898Z,12.90
2022-08-29T04:37:41.059Z,12.90
2022-08-29T04:40:10.873Z,12.80
2022-08-29T04:42:38.592Z,12.80
2022-08-29T04:45:07.496Z,12.80
2022-08-29T04:47:37.508Z,12.80
2022-08-29T04:50:05.105Z,12.80
2022-08-29T04:52:31.928Z,12.80
2022-08-29T04:54:59.848Z,12.80
2022-08-29T04:57:26.614Z,12.80
2022-08-29T04:59:58.780Z,12.80
2022-08-29T05:02:27.567Z,12.80
2022-08-29T05:04:56.565Z,12.80
2022-08-29T05:07:25.613Z,12.80
2022-08-29T05:10:07.103Z,12.90
2022-08-29T05:12:33.944Z,12.90
2022-08-29T05:15:01.327Z,12.90
2022-08-29T05:17:28.434Z,12.90
2022-08-29T05:19:55.418Z,12.90
2022-08-29T05:22:22.364Z,12.90
2022-08-29T05:24:50.393Z,12.90
2022-08-29T05:27:20.658Z,13.00
2022-08-29T05:29:50.747Z,13.00
2022-08-29T05:32:19.619Z,13.00
2022-08-29T05:34:47.825Z,13.00
2022-08-29T05:37:18.937Z,13.10
2022-08-29T05:39:46.294Z,13.10
2022-08-29T05:42:13.508Z,13.10
2022-08-29T05:44:40.653Z,13.10
2022-08-29T05:47:09.795Z,13.20
2022-08-29T05:49:42.085Z,13.20
2022-08-29T05:52:09.452Z,13.20
2022-08-29T05:54:38.303Z,13.30
2022-08-29T05:57:06.848Z,13.30
2022-08-29T05:59:33.960Z,13.30
2022-08-29T06:02:01.491Z,13.40
2022-08-29T06:04:28.625Z,13.40
2022-08-29T06:06:55.552Z,13.40
2022-08-29T06:09:22.353Z,13.50
2022-08-29T06:11:51.329Z,13.50
2022-08-29T06:14:20.531Z,13.50
2022-08-29T06:16:47.317Z,13.60
2022-08-29T06:19:14.165Z,13.70
2022-08-29T06:21:41.529Z,13.80
2022-08-29T06:24:08.649Z,13.80
2022-08-29T06:26:35.543Z,13.90
2022-08-29T06:29:07.945Z,13.90
2022-08-29T06:31:34.707Z,13.90
2022-08-29T06:34:04.882Z,14.00
2022-08-29T06:36:32.351Z,14.00
2022-08-29T06:39:00.971Z,14.10
2022-08-29T06:41:28.496Z,14.10
2022-08-29T06:43:56.874Z,14.10
2022-08-29T06:46:26.726Z,14.30
2022-08-29T06:48:55.119Z,14.30
2022-08-29T06:51:22.008Z,14.40
2022-08-29T06:53:48.956Z,14.60
2022-08-29T06:56:16.468Z,14.60
2022-08-29T06:58:43.596Z,14.70
2022-08-29T07:01:13.994Z,14.80
2022-08-29T07:03:41.570Z,14.80
2022-08-29T07:06:09.364Z,14.90
2022-08-29T07:08:42.201Z,15.00
2022-08-29T07:11:13.547Z,15.20
2022-08-29T07:13:40.933Z,15.30
2022-08-29T07:16:09.660Z,15.40
2022-08-29T07:18:37.421Z,15.40
2022-08-29T07:21:08.485Z,15.60
2022-08-29T07:23:35.661Z,15.60
2022-08-29T07:26:08.584Z,15.70
2022-08-29T07:28:35.889Z,15.80
2022-08-29T07:31:06.453Z,15.80
2022-08-29T07:33:35.089Z,15.90
2022-08-29T07:36:03.047Z,16.00
2022-08-29T07:38:30.750Z,16.00
2022-08-29T07:41:02.794Z,16.20
2022-08-29T07:43:30.086Z,16.20
2022-08-29T07:45:57.328Z,16.20
2022-08-29T07:48:25.404Z,16.40
2022-08-29T07:50:53.085Z,16.40
2022-08-29T07:53:19.951Z,16.50
2022-08-29T07:55:46.939Z,16.60
2022-08-29T07:58:13.920Z,16.70
2022-08-29T08:00:40.870Z,16.70
2022-08-29T08:03:08.664Z,16.90
2022-08-29T08:05:35.504Z,17.10
2022-08-29T08:08:08.661Z,17.20
2022-08-29T08:10:39.194Z,17.30
2022-08-29T08:13:05.938Z,17.40
2022-08-29T08:15:32.699Z,17.50
2022-08-29T08:17:59.401Z,17.70
2022-08-29T08:20:26.214Z,17.80
2022-08-29T08:22:55.283Z,17.90
2022-08-29T08:25:24.357Z,18.00
2022-08-29T08:27:51.287Z,18.20
2022-08-29T08:30:18.379Z,18.30
2022-08-29T08:32:48.001Z,18.30
2022-08-29T08:35:16.662Z,18.30
2022-08-29T08:37:44.112Z,18.50
2022-08-29T08:40:26.650Z,18.60
2022-08-29T08:43:00.212Z,18.90
2022-08-29T08:45:40.472Z,19.00
2022-08-29T08:48:15.471Z,19.10
2022-08-29T08:50:54.970Z,19.20
2022-08-29T08:53:27.287Z,19.40
2022-08-29T08:55:59.850Z,19.60
2022-08-29T08:58:34.562Z,19.70
2022-08-29T09:01:23.045Z,20.00
2022-08-29T09:04:08.733Z,20.10
2022-08-29T09:07:03.777Z,20.30
2022-08-29T09:09:41.264Z,20.40
2022-08-29T09:12:44.770Z,20.50
2022-08-29T09:15:20.811Z,20.60
2022-08-29T09:17:58.041Z,20.70
2022-08-29T09:20:31.696Z,20.80
2022-08-29T09:23:19.266Z,20.90
2022-08-29T09:25:47.103Z,21.10
2022-08-29T09:28:14.347Z,21.30
2022-08-29T09:30:44.314Z,21.60
2022-08-29T09:33:16.219Z,21.80
2022-08-29T09:35:46.864Z,22.00
2022-08-29T09:38:25.750Z,22.20
2022-08-29T09:41:02.524Z,22.50
2022-08-29T09:43:46.772Z,22.70
2022-08-29T09:46:25.662Z,22.80
2022-08-29T09:49:05.237Z,23.00
2022-08-29T09:51:38.276Z,23.30
2022-08-29T09:54:31.628Z,23.60
2022-08-29T09:57:24.353Z,23.80
2022-08-29T10:00:15.123Z,23.80
2022-08-29T10:02:54.120Z,23.90
2022-08-29T10:05:31.640Z,24.00
2022-08-29T10:07:59.038Z,24.20
2022-08-29T10:10:30.098Z,24.30
2022-08-29T10:13:05.976Z,24.50
2022-08-29T10:15:50.839Z,24.50
2022-08-29T10:18:49.626Z,24.60
2022-08-29T10:21:16.769Z,24.70
2022-08-29T10:23:59.705Z,24.90
2022-08-29T10:26:52.944Z,25.00
2022-08-29T10:29:31.713Z,25.20
2022-08-29T10:32:04.723Z,25.30
2022-08-29T10:34:57.573Z,25.20
2022-08-29T10:37:41.243Z,25.20
2022-08-29T10:40:28.693Z,25.30
2022-08-29T10:43:26.619Z,25.60
2022-08-29T10:46:01.554Z,25.50
2022-08-29T10:48:39.335Z,25.50
2022-08-29T10:51:39.329Z,25.70
2022-08-29T10:54:29.089Z,25.80
2022-08-29T10:56:56.348Z,25.90
2022-08-29T10:59:37.710Z,25.90
2022-08-29T11:02:16.772Z,25.90
2022-08-29T11:04:54.040Z,25.90
2022-08-29T11:07:43.725Z,26.10
2022-08-29T11:10:17.626Z,26.10
2022-08-29T11:13:05.542Z,25.90
2022-08-29T11:15:52.462Z,26.00
2022-08-29T11:18:43.323Z,26.20
2022-08-29T11:21:22.259Z,26.20
2022-08-29T11:23:49.179Z,26.30
2022-08-29T11:26:23.049Z,26.20
2022-08-29T11:29:29.029Z,26.10
2022-08-29T11:32:14.986Z,26.20
2022-08-29T11:35:03.120Z,26.40
2022-08-29T11:37:51.235Z,26.10
2022-08-29T11:40:47.221Z,26.10
2022-08-29T11:43:15.939Z,26.30
2022-08-29T11:45:44.160Z,26.50
2022-08-29T11:48:30.600Z,26.60
2022-08-29T11:50:58.936Z,26.60
2022-08-29T11:53:34.237Z,26.10
2022-08-29T11:56:12.915Z,25.80
2022-08-29T11:58:43.348Z,26.00
2022-08-29T12:01:35.712Z,26.30
2022-08-29T12:04:05.180Z,26.60
2022-08-29T12:06:53.804Z,26.50
2022-08-29T12:09:45.750Z,26.10
2022-08-29T12:12:33.691Z,25.80
2022-08-29T12:15:01.483Z,25.90
2022-08-29T12:17:51.304Z,25.90
2022-08-29T12:20:45.314Z,25.80
2022-08-29T12:23:15.150Z,25.90
2022-08-29T12:26:21.104Z,26.10
2022-08-29T12:28:57.044Z,26.20
2022-08-29T12:31:29.960Z,26.40
2022-08-29T12:34:15.819Z,26.40
2022-08-29T12:37:05.521Z,26.40
2022-08-29T12:40:07.099Z,26.30
2022-08-29T12:42:52.945Z,26.30
2022-08-29T12:45:24.729Z,26.20
2022-08-29T12:48:16.065Z,26.10
2022-08-29T12:50:48.136Z,25.90
2022-08-29T12:53:26.930Z,25.90
2022-08-29T12:56:00.988Z,26.00
2022-08-29T12:58:39.696Z,26.10
2022-08-29T13:01:19.668Z,26.10
2022-08-29T13:03:57.132Z,26.00
2022-08-29T13:06:24.204Z,26.10
2022-08-29T13:08:50.940Z,26.20
2022-08-29T13:11:21.927Z,26.30
2022-08-29T13:13:49.446Z,26.30
2022-08-29T13:16:29.057Z,26.30
2022-08-29T13:19:11.149Z,26.30
2022-08-29T13:21:38.481Z,26.20
2022-08-29T13:24:12.670Z,26.20
2022-08-29T13:27:05.695Z,26.20
2022-08-29T13:29:42.109Z,26.20
2022-08-29T13:32:28.050Z,26.20
2022-08-29T13:35:15.427Z,26.20
2022-08-29T13:37:46.016Z,26.20
2022-08-29T13:40:28.197Z,26.20
2022-08-29T13:42:56.757Z,26.20
2022-08-29T13:45:25.113Z,26.30
2022-08-29T13:48:01.857Z,26.30
2022-08-29T13:50:30.168Z,26.20
2022-08-29T13:52:58.434Z,26.20
2022-08-29T13:55:25.434Z,26.30
2022-08-29T13:57:54.417Z,26.20
2022-08-29T14:00:34.998Z,26.20
2022-08-29T14:03:03.830Z,26.20
2022-08-29T14:05:30.970Z,26.30
2022-08-29T14:07:58.515Z,26.40
2022-08-29T14:10:25.274Z,26.30
2022-08-29T14:12:52.206Z,26.30
2022-08-29T14:15:19.289Z,26.20
2022-08-29T14:17:47.354Z,26.20
2022-08-29T14:20:17.519Z,26.10
2022-08-29T14:22:45.009Z,26.10
2022-08-29T14:25:13.146Z,26.10
2022-08-29T14:27:40.092Z,26.00
2022-08-29T14:30:09.536Z,25.90
2022-08-29T14:32:36.809Z,25.70
2022-08-29T14:35:05.014Z,25.70
2022-08-29T14:37:32.384Z,25.70
2022-08-29T14:39:59.265Z,25.60
2022-08-29T14:42:25.995Z,25.50
2022-08-29T14:44:52.689Z,25.60
2022-08-29T14:47:19.515Z,25.70
2022-08-29T14:49:46.173Z,25.70
2022-08-29T14:52:14.955Z,25.70
2022-08-29T14:54:43.126Z,25.80
2022-08-29T14:57:10.784Z,25.90
2022-08-29T14:59:39.141Z,25.90
2022-08-29T15:02:08.234Z,25.90
2022-08-29T15:04:37.632Z,25.90
2022-08-29T15:07:11.032Z,25.90
2022-08-29T15:09:38.929Z,25.80
2022-08-29T15:12:06.087Z,25.70
2022-08-29T15:14:34.626Z,25.70
2022-08-29T15:17:02.007Z,25.70
2022-08-29T15:20:03.999Z,25.80
2022-08-29T15:22:16.552Z,25.90
2022-08-29T15:24:43.748Z,26.00
2022-08-29T15:27:11.036Z,26.00
2022-08-29T15:29:40.739Z,25.90
2022-08-29T15:32:07.691Z,25.80
2022-08-29T15:34:34.550Z,25.80
2022-08-29T15:37:03.492Z,25.80
2022-08-29T15:39:30.425Z,25.80
2022-08-29T15:41:59.785Z,25.80
2022-08-29T15:44:28.324Z,25.80
2022-08-29T15:46:56.694Z,25.80
2022-08-29T15:49:28.390Z,25.70
2022-08-29T15:51:56.372Z,25.70
2022-08-29T15:54:24.296Z,25.70
2022-08-29T15:56:51.055Z,25.70
2022-08-29T15:59:31.018Z,25.70
2022-08-29T16:02:10.155Z,25.70
2022-08-29T16:04:38.101Z,25.60
2022-08-29T16:07:05.163Z,25.50
2022-08-29T16:09:31.932Z,25.50
2022-08-29T16:11:58.609Z,25.50
2022-08-29T16:14:58.008Z,25.50
2022-08-29T16:17:13.252Z,25.40
2022-08-29T16:19:41.808Z,25.40
2022-08-29T16:22:09.915Z,25.40
2022-08-29T16:24:36.779Z,25.30
2022-08-29T16:27:03.674Z,25.30
2022-08-29T16:29:30.474Z,25.30
2022-08-29T16:31:58.737Z,25.30
2022-08-29T16:34:29.154Z,25.30
2022-08-29T16:36:57.705Z,25.30
2022-08-29T16:39:24.597Z,25.30
2022-08-29T16:41:51.460Z,25.30
2022-08-29T16:44:18.460Z,25.30
2022-08-29T16:46:45.357Z,25.20
2022-08-29T16:49:12.232Z,25.20
2022-08-29T16:51:38.951Z,25.20
2022-08-29T16:54:06.025Z,25.20
2022-08-29T16:56:32.995Z,25.20
2022-08-29T16:59:00.293Z,25.20
2022-08-29T17:01:44.414Z,25.20
2022-08-29T17:04:14.735Z,25.10
2022-08-29T17:06:42.128Z,25.10
2022-08-29T17:09:09.392Z,25.00
2022-08-29T17:11:37.225Z,25.00
2022-08-29T17:14:05.106Z,25.00
2022-08-29T17:16:32.285Z,25.00
2022-08-29T17:18:59.895Z,25.00
2022-08-29T17:21:27.188Z,25.00
2022-08-29T17:23:55.426Z,24.90
2022-08-29T17:26:23.102Z,24.90
2022-08-29T17:28:50.529Z,24.80
2022-08-29T17:31:17.945Z,24.80
2022-08-29T17:33:45.973Z,24.80
2022-08-29T17:36:13.138Z,24.70
2022-08-29T17:38:41.737Z,24.70
2022-08-29T17:41:15.316Z,24.70
2022-08-29T17:43:45.573Z,24.60
2022-08-29T17:46:12.434Z,24.60
2022-08-29T17:48:39.533Z,24.50
2022-08-29T17:51:07.180Z,24.40
2022-08-29T17:53:34.784Z,24.30
2022-08-29T17:56:20.863Z,24.30
2022-08-29T17:58:48.408Z,24.20
2022-08-29T18:01:16.911Z,24.10
2022-08-29T18:03:45.302Z,24.00
2022-08-29T18:06:15.325Z,23.90
2022-08-29T18:08:46.944Z,23.80
2022-08-29T18:11:16.934Z,23.80
2022-08-29T18:13:44.498Z,23.80
2022-08-29T18:16:12.098Z,23.80
2022-08-29T18:18:39.108Z,23.70
2022-08-29T18:21:05.997Z,23.70
2022-08-29T18:23:33.216Z,23.60
2022-08-29T18:26:00.281Z,23.60
2022-08-29T18:28:27.142Z,23.50
2022-08-29T18:30:54.414Z,23.40
2022-08-29T18:33:21.391Z,23.30
2022-08-29T18:35:48.138Z,23.20
2022-08-29T18:38:16.114Z,23.20
2022-08-29T18:40:43.033Z,23.10
2022-08-29T18:43:10.174Z,23.00
2022-08-29T18:45:39.905Z,22.80
2022-08-29T18:48:07.240Z,22.70
2022-08-29T18:50:34.105Z,22.60
2022-08-29T18:53:11.533Z,22.50
2022-08-29T18:55:40.937Z,22.40
2022-08-29T18:58:10.377Z,22.40
2022-08-29T19:00:38.419Z,22.20
2022-08-29T19:03:05.813Z,22.10
2022-08-29T19:05:34.946Z,22.00
2022-08-29T19:08:02.160Z,22.00
2022-08-29T19:10:30.613Z,22.00
2022-08-29T19:12:59.190Z,22.00
2022-08-29T19:15:28.392Z,21.90
2022-08-29T19:17:56.308Z,21.80
2022-08-29T19:20:45.791Z,21.80
2022-08-29T19:23:12.793Z,21.70
2022-08-29T19:25:40.878Z,21.60
2022-08-29T19:28:08.844Z,21.50
2022-08-29T19:30:38.193Z,21.40
2022-08-29T19:33:06.696Z,21.30
2022-08-29T19:35:33.678Z,21.20
2022-08-29T19:38:00.427Z,21.10
2022-08-29T19:40:29.379Z,21.00
2022-08-29T19:43:00.095Z,21.00
2022-08-29T19:45:28.249Z,21.00
2022-08-29T19:47:55.693Z,20.90
2022-08-29T19:50:24.707Z,20.90
2022-08-29T19:52:53.348Z,20.90
2022-08-29T19:55:22.881Z,20.80
2022-08-29T19:57:51.557Z,20.80
2022-08-29T20:00:21.439Z,20.70
2022-08-29T20:02:48.140Z,20.70
2022-08-29T20:05:16.505Z,20.60
2022-08-29T20:07:47.311Z,20.60
2022-08-29T20:10:17.296Z,20.50
2022-08-29T20:12:50.199Z,20.40
2022-08-29T20:15:18.210Z,20.40
2022-08-29T20:17:46.591Z,20.30
2022-08-29T20:20:19.885Z,20.30
2022-08-29T20:22:47.105Z,20.20
2022-08-29T20:25:15.977Z,20.20
2022-08-29T20:27:43.381Z,20.10
2022-08-29T20:30:15.941Z,20.00
2022-08-29T20:32:44.475Z,19.90
2022-08-29T20:35:12.270Z,19.70
2022-08-29T20:37:38.970Z,19.60
2022-08-29T20:40:06.288Z,19.60
2022-08-29T20:42:33.676Z,19.50
2022-08-29T20:45:00.666Z,19.50
2022-08-29T20:47:27.508Z,19.50
2022-08-29T20:49:56.461Z,19.40
2022-08-29T20:52:24.307Z,19.30
2022-08-29T20:54:51.641Z,19.30
2022-08-29T20:57:18.502Z,19.20
2022-08-29T20:59:45.379Z,19.20
2022-08-29T21:02:12.558Z,19.20
2022-08-29T21:04:58.289Z,19.10
2022-08-29T21:07:25.846Z,19.10
2022-08-29T21:09:52.619Z,19.10
2022-08-29T21:12:20.912Z,19.10
2022-08-29T21:14:47.945Z,19.10
2022-08-29T21:17:15.149Z,19.00
2022-08-29T21:19:43.089Z,18.90
2022-08-29T21:22:11.827Z,18.80
2022-08-29T21:24:39.424Z,18.80
2022-08-29T21:27:06.551Z,18.70
2022-08-29T21:29:33.628Z,18.70
2022-08-29T21:32:00.400Z,18.70
2022-08-29T21:34:27.205Z,18.60
2022-08-29T21:36:54.431Z,18.60
2022-08-29T21:39:28.065Z,18.50
2022-08-29T21:41:56.468Z,18.50
2022-08-29T21:44:23.806Z,18.40
2022-08-29T21:46:50.684Z,18.40
2022-08-29T21:49:21.460Z,18.40
2022-08-29T21:51:49.179Z,18.30
2022-08-29T21:54:17.333Z,18.30
2022-08-29T21:56:44.864Z,18.30
2022-08-29T21:59:12.581Z,18.20
2022-08-29T22:01:40.663Z,18.10
2022-08-29T22:04:11.028Z,18.10
2022-08-29T22:06:41.048Z,18.10
2022-08-29T22:09:14.875Z,18.10
2022-08-29T22:11:44.645Z,18.00
2022-08-29T22:14:12.793Z,17.90
2022-08-29T22:16:40.121Z,17.90
2022-08-29T22:19:11.963Z,17.80
2022-08-29T22:21:47.419Z,17.80
2022-08-29T22:24:26.695Z,17.70
2022-08-29T22:30:00.599Z,17.80
2022-08-29T22:32:32.318Z,17.70
2022-08-29T22:35:14.031Z,17.70
2022-08-29T22:37:43.546Z,17.70
2022-08-29T22:40:37.879Z,17.60
2022-08-29T22:43:04.947Z,17.60
2022-08-29T22:46:01.831Z,17.50
2022-08-29T22:48:28.941Z,17.50
2022-08-29T22:51:50.699Z,17.40
2022-08-29T22:54:42.365Z,17.30
2022-08-29T22:57:12.769Z,17.20
2022-08-29T23:00:17.497Z,17.20
2022-08-29T23:02:54.725Z,17.20
2022-08-29T23:05:40.169Z,17.20
2022-08-29T23:08:33.553Z,17.10
2022-08-29T23:11:13.084Z,17.10
2022-08-29T23:13:50.620Z,17.10
2022-08-29T23:16:40.863Z,17.10
2022-08-29T23:22:11.942Z,16.90
2022-08-29T23:28:10.200Z,16.90
2022-08-29T23:30:53.938Z,16.90
2022-08-29T23:33:46.364Z,16.80
2022-08-29T23:36:13.723Z,16.80
2022-08-29T23:42:18.318Z,16.70
2022-08-29T23:45:01.187Z,16.60
2022-08-29T23:47:37.395Z,16.60
2022-08-29T23:50:15.685Z,16.50
2022-08-29T23:53:00.875Z,16.50
2022-08-29T23:58:36.740Z,16.50
